Terminal Aerodrome Forecast
Issued by NWS Wilmington, OH

Home | Current Version | Previous Version | Text Only | Print | Product List | Glossary On
Versions: 1 2 3 4 5 6 7 8 9 10 11 12 13 14
347
FTUS41 KILN 241256 AAA
TAFILN
TAF AMD
KILN 241256Z 2413/2512 09010KT P6SM -SHRA BKN006 OVC015
     FM241400 09012KT 6SM -SHRA BR BKN025 OVC040
     FM241700 09012KT 6SM -SHRA BR OVC018
     FM242100 07007KT 6SM -SHRA BR OVC012
     FM250300 01006KT P6SM OVC009=

USA.gov is the U.S. government's official web portal to all federal, state and local government web resources and services.